Circle Line Xii — WM8392 — position and weather

sailwx.info

Track history (hours):
 
Tides and Currents Weather Stations Pressure Air Temp Water Temp Dewpoint Dewpoint Depression Visibility Wind Speed Wind Dir Waves Ship Positions

Circle Line Xii

Owner: CIRCLE LINE SIGHTSEEING YACHTS, NEW YORK, NY. More information available from US FCC via Universal Licensing System and Coast Guard Vessel Documentation Center.

Last reported at 2016-May-25 00:33 UTC. Time now 2016-May-25 05:21 UTC.
Position N 40°42' W 074°01'.

MMSI: 367032250.

Date/timePositionNaut miles runAvg speedWind from/ knotsBaromVisibWave heightAir tempDewpointWater temp
2016-May-25 00:33N 40°42' W 074°01'1 1.2
2016-May-24 23:33N 40°41' W 074°02'3 1.1
2016-May-24 20:29N 40°45' W 074°01'3 1.0
2016-May-24 17:19N 40°46' W 073°57'5 7.0
2016-May-24 16:33N 40°42' W 074°02'4 0.2
2016-May-23 22:04N 40°46' W 074°00'0 0.0
2016-May-23 21:31N 40°46' W 074°00'2 1.0
2016-May-23 19:22N 40°46' W 073°57'6 7.4
2016-May-23 18:33N 40°41' W 074°03'5 4.7
2016-May-23 17:31N 40°46' W 074°00'2 1.0
2016-May-23 15:12N 40°46' W 073°57'5 8.5
2016-May-23 14:33N 40°42' W 074°02'4 4.3
2016-May-23 13:33N 40°46' W 074°00'1 0.0
2016-May-21 20:21N 40°45' W 074°01'4 5.3
2016-May-21 19:33N 40°41' W 074°01'4 0.9
2016-May-21 15:27N 40°44' W 074°01'2 0.1
2016-May-20 20:26N 40°46' W 074°00'5 5.9
2016-May-20 19:33N 40°41' W 074°01'4 1.2
2016-May-20 16:23N 40°45' W 074°01'4 4.4
2016-May-20 15:34N 40°41' W 074°02'6 0.3
2016-May-19 19:17N 40°46' W 073°57'6 7.7
2016-May-19 18:33N 40°42' W 074°02'6 1.9
2016-May-19 15:25N 40°46' W 073°57'6 6.4
2016-May-19 14:34N 40°42' W 074°02'3 0.2
2016-May-18 20:25N 40°45' W 074°01'3 1.0
2016-May-18 17:18N 40°46' W 073°57'6 8.0
2016-May-18 16:33N 40°41' W 074°03'1 0.1
2016-May-18 00:33N 40°42' W 074°01'1 0.7
2016-May-17 23:33N 40°42' W 074°02'4 4.0
2016-May-17 22:32N 40°46' W 074°00'0 0.0
2016-May-17 21:32N 40°46' W 074°00'0 0.0
2016-May-17 20:32N 40°46' W 074°00'6 5.8
2016-May-17 19:33N 40°40' W 074°01'6 5.5
2016-May-17 18:32N 40°46' W 074°00'0 0.0
2016-May-17 17:32N 40°46' W 074°00'0 0.0
2016-May-17 16:29N 40°46' W 074°00'3 3.7
2016-May-17 15:34N 40°42' W 074°01'3 3.2
2016-May-17 14:29N 40°46' W 074°00'0 0.0
2016-May-17 13:32N 40°46' W 074°00'0 0.0
2016-May-17 12:32N 40°46' W 074°00'0 0.0
2016-May-17 11:32N 40°46' W 074°00'0 0.0
2016-May-17 10:32N 40°46' W 074°00'0 0.0
2016-May-17 09:32N 40°46' W 074°00'0 0.0
2016-May-17 08:32N 40°46' W 074°00'0 0.0
2016-May-17 07:32N 40°46' W 074°00'0 0.0
2016-May-17 06:32N 40°46' W 074°00'0 0.0
2016-May-17 05:29N 40°46' W 074°00'0 0.0
2016-May-17 04:32N 40°46' W 074°00'0 0.0
2016-May-17 03:32N 40°46' W 074°00'0 0.0
2016-May-17 02:29N 40°46' W 074°00'0 0.0
2016-May-17 01:32N 40°46' W 074°00'0 0.0
2016-May-17 00:32N 40°46' W 074°00'0 0.0
2016-May-16 23:32N 40°46' W 074°00'0 0.0
2016-May-16 22:32N 40°46' W 074°00'0 0.0
2016-May-16 21:32N 40°46' W 074°00'2 0.9
2016-May-16 19:04N 40°44' W 073°58'4 7.7
2016-May-16 18:33N 40°42' W 074°02'4 4.3
2016-May-16 17:33N 40°46' W 074°00'2 0.9
2016-May-16 15:10N 40°44' W 073°58'5 7.2
2016-May-16 14:33N 40°41' W 074°02'5 4.5
2016-May-16 13:28N 40°46' W 074°00'  
Track history (hours):
 
Tides and Currents Weather Stations Pressure Air Temp Water Temp Dewpoint Dewpoint Depression Visibility Wind Speed Wind Dir Waves Ship Positions

Circle Line Xii

Owner: CIRCLE LINE SIGHTSEEING YACHTS, NEW YORK, NY. More information available from US FCC via Universal Licensing System and Coast Guard Vessel Documentation Center.

Last reported at 2016-May-25 00:33 UTC. Time now 2016-May-25 05:21 UTC.
Position N 40°42' W 074°01'.

MMSI: 367032250.

Date/timePositionNaut miles runAvg speedWind from/ knotsBaromVisibWave heightAir tempDewpointWater temp
2016-May-25 00:33N 40°42' W 074°01'1 1.2
2016-May-24 23:33N 40°41' W 074°02'3 1.1
2016-May-24 20:29N 40°45' W 074°01'3 1.0
2016-May-24 17:19N 40°46' W 073°57'5 7.0
2016-May-24 16:33N 40°42' W 074°02'4 0.2
2016-May-23 22:04N 40°46' W 074°00'0 0.0
2016-May-23 21:31N 40°46' W 074°00'2 1.0
2016-May-23 19:22N 40°46' W 073°57'6 7.4
2016-May-23 18:33N 40°41' W 074°03'5 4.7
2016-May-23 17:31N 40°46' W 074°00'2 1.0
2016-May-23 15:12N 40°46' W 073°57'5 8.5
2016-May-23 14:33N 40°42' W 074°02'4 4.3
2016-May-23 13:33N 40°46' W 074°00'1 0.0
2016-May-21 20:21N 40°45' W 074°01'4 5.3
2016-May-21 19:33N 40°41' W 074°01'4 0.9
2016-May-21 15:27N 40°44' W 074°01'2 0.1
2016-May-20 20:26N 40°46' W 074°00'5 5.9
2016-May-20 19:33N 40°41' W 074°01'4 1.2
2016-May-20 16:23N 40°45' W 074°01'4 4.4
2016-May-20 15:34N 40°41' W 074°02'6 0.3
2016-May-19 19:17N 40°46' W 073°57'6 7.7
2016-May-19 18:33N 40°42' W 074°02'6 1.9
2016-May-19 15:25N 40°46' W 073°57'6 6.4
2016-May-19 14:34N 40°42' W 074°02'3 0.2
2016-May-18 20:25N 40°45' W 074°01'3 1.0
2016-May-18 17:18N 40°46' W 073°57'6 8.0
2016-May-18 16:33N 40°41' W 074°03'1 0.1
2016-May-18 00:33N 40°42' W 074°01'1 0.7
2016-May-17 23:33N 40°42' W 074°02'4 4.0
2016-May-17 22:32N 40°46' W 074°00'0 0.0
2016-May-17 21:32N 40°46' W 074°00'0 0.0
2016-May-17 20:32N 40°46' W 074°00'6 5.8
2016-May-17 19:33N 40°40' W 074°01'6 5.5
2016-May-17 18:32N 40°46' W 074°00'0 0.0
2016-May-17 17:32N 40°46' W 074°00'0 0.0
2016-May-17 16:29N 40°46' W 074°00'3 3.7
2016-May-17 15:34N 40°42' W 074°01'3 3.2
2016-May-17 14:29N 40°46' W 074°00'0 0.0
2016-May-17 13:32N 40°46' W 074°00'0 0.0
2016-May-17 12:32N 40°46' W 074°00'0 0.0
2016-May-17 11:32N 40°46' W 074°00'0 0.0
2016-May-17 10:32N 40°46' W 074°00'0 0.0
2016-May-17 09:32N 40°46' W 074°00'0 0.0
2016-May-17 08:32N 40°46' W 074°00'0 0.0
2016-May-17 07:32N 40°46' W 074°00'0 0.0
2016-May-17 06:32N 40°46' W 074°00'0 0.0
2016-May-17 05:29N 40°46' W 074°00'0 0.0
2016-May-17 04:32N 40°46' W 074°00'0 0.0
2016-May-17 03:32N 40°46' W 074°00'0 0.0
2016-May-17 02:29N 40°46' W 074°00'0 0.0
2016-May-17 01:32N 40°46' W 074°00'0 0.0
2016-May-17 00:32N 40°46' W 074°00'0 0.0
2016-May-16 23:32N 40°46' W 074°00'0 0.0
2016-May-16 22:32N 40°46' W 074°00'0 0.0
2016-May-16 21:32N 40°46' W 074°00'2 0.9
2016-May-16 19:04N 40°44' W 073°58'4 7.7
2016-May-16 18:33N 40°42' W 074°02'4 4.3
2016-May-16 17:33N 40°46' W 074°00'2 0.9
2016-May-16 15:10N 40°44' W 073°58'5 7.2
2016-May-16 14:33N 40°41' W 074°02'5 4.5
2016-May-16 13:28N 40°46' W 074°00'  

Dump ship's entire track history